createdAt,value
2022-08-29T00:00:17.628Z,5.57
2022-08-29T00:02:47.284Z,5.82
2022-08-29T00:05:15.987Z,5.95
2022-08-29T00:07:44.117Z,6.03
2022-08-29T00:10:12.930Z,6.07
2022-08-29T00:12:42.562Z,5.78
2022-08-29T00:15:12.681Z,6.13
2022-08-29T00:17:40.879Z,5.82
2022-08-29T00:20:12.141Z,6.88
2022-08-29T00:22:40.362Z,6.43
2022-08-29T00:25:10.803Z,6.43
2022-08-29T00:27:39.352Z,5.95
2022-08-29T00:30:11.630Z,5.88
2022-08-29T00:32:40.693Z,6.50
2022-08-29T00:35:11.303Z,5.82
2022-08-29T00:37:39.865Z,6.07
2022-08-29T00:40:11.153Z,5.90
2022-08-29T00:42:40.402Z,6.15
2022-08-29T00:45:13.072Z,6.50
2022-08-29T00:47:47.042Z,6.30
2022-08-29T00:50:20.854Z,6.25
2022-08-29T00:52:50.677Z,6.35
2022-08-29T00:55:23.016Z,6.45
2022-08-29T00:57:56.719Z,6.80
2022-08-29T01:00:28.246Z,6.70
2022-08-29T01:02:57.355Z,6.78
2022-08-29T01:05:26.229Z,6.53
2022-08-29T01:07:55.120Z,6.43
2022-08-29T01:10:41.272Z,6.43
2022-08-29T01:13:11.917Z,5.93
2022-08-29T01:15:44.355Z,6.45
2022-08-29T01:18:15.900Z,6.18
2022-08-29T01:20:59.468Z,6.82
2022-08-29T01:23:33.886Z,6.15
2022-08-29T01:26:05.602Z,6.03
2022-08-29T01:28:35.917Z,6.68
2022-08-29T01:31:06.800Z,6.18
2022-08-29T01:33:40.834Z,5.97
2022-08-29T01:36:11.160Z,6.60
2022-08-29T01:38:40.382Z,6.65
2022-08-29T01:41:11.199Z,6.03
2022-08-29T01:43:42.478Z,7.25
2022-08-29T01:46:11.598Z,6.68
2022-08-29T01:48:42.461Z,6.20
2022-08-29T01:51:12.073Z,6.55
2022-08-29T01:53:40.365Z,6.00
2022-08-29T01:56:17.172Z,6.68
2022-08-29T01:58:47.416Z,6.20
2022-08-29T02:01:18.284Z,7.00
2022-08-29T02:03:49.898Z,6.38
2022-08-29T02:06:18.823Z,5.90
2022-08-29T02:08:47.420Z,6.25
2022-08-29T02:11:18.005Z,6.25
2022-08-29T02:13:49.568Z,6.38
2022-08-29T02:16:18.400Z,6.93
2022-08-29T02:18:47.356Z,6.38
2022-08-29T02:21:18.261Z,6.75
2022-08-29T02:23:50.509Z,5.82
2022-08-29T02:26:22.108Z,7.00
2022-08-29T02:28:52.396Z,6.78
2022-08-29T02:31:23.190Z,6.53
2022-08-29T02:33:52.657Z,6.47
2022-08-29T02:36:22.360Z,6.55
2022-08-29T02:38:51.237Z,6.30
2022-08-29T02:41:21.312Z,5.95
2022-08-29T02:43:49.901Z,6.05
2022-08-29T02:46:20.987Z,6.45
2022-08-29T02:49:00.001Z,5.95
2022-08-29T02:51:32.780Z,6.82
2022-08-29T02:54:01.356Z,6.20
2022-08-29T02:56:32.074Z,6.35
2022-08-29T02:59:01.814Z,6.28
2022-08-29T03:01:31.305Z,5.32
2022-08-29T03:04:01.096Z,6.13
2022-08-29T03:06:29.878Z,6.22
2022-08-29T03:08:58.624Z,6.80
2022-08-29T03:11:28.564Z,6.20
2022-08-29T03:13:58.650Z,6.20
2022-08-29T03:16:26.983Z,5.95
2022-08-29T03:18:56.041Z,6.43
2022-08-29T03:21:26.027Z,6.32
2022-08-29T03:23:56.693Z,5.78
2022-08-29T03:26:27.145Z,5.82
2022-08-29T03:28:55.518Z,6.47
2022-08-29T03:31:25.690Z,6.55
2022-08-29T03:33:54.313Z,6.32
2022-08-29T03:36:22.873Z,6.28
2022-08-29T03:38:52.016Z,6.13
2022-08-29T03:41:24.283Z,5.80
2022-08-29T03:43:53.331Z,6.38
2022-08-29T03:46:21.940Z,6.63
2022-08-29T03:48:51.517Z,6.70
2022-08-29T03:51:21.044Z,6.75
2022-08-29T03:53:49.193Z,6.07
2022-08-29T03:56:19.200Z,6.80
2022-08-29T03:58:52.652Z,6.75
2022-08-29T04:01:22.961Z,7.07
2022-08-29T04:03:53.271Z,6.70
2022-08-29T04:06:23.018Z,6.18
2022-08-29T04:08:52.790Z,6.00
2022-08-29T04:11:22.563Z,6.00
2022-08-29T04:13:50.765Z,6.75
2022-08-29T04:16:24.213Z,6.47
2022-08-29T04:18:54.439Z,6.13
2022-08-29T04:21:23.055Z,6.75
2022-08-29T04:23:51.176Z,6.18
2022-08-29T04:26:37.425Z,5.80
2022-08-29T04:29:06.746Z,6.38
2022-08-29T04:31:37.067Z,6.35
2022-08-29T04:34:08.908Z,6.32
2022-08-29T04:36:37.852Z,5.95
2022-08-29T04:39:07.513Z,6.15
2022-08-29T04:41:36.146Z,5.93
2022-08-29T04:44:05.267Z,6.13
2022-08-29T04:46:33.540Z,5.85
2022-08-29T04:49:04.342Z,5.45
2022-08-29T04:51:35.199Z,5.82
2022-08-29T04:54:04.226Z,5.43
2022-08-29T04:56:33.073Z,5.75
2022-08-29T04:59:03.001Z,5.90
2022-08-29T05:01:33.000Z,5.90
2022-08-29T05:04:01.210Z,5.95
2022-08-29T05:06:29.864Z,6.28
2022-08-29T05:09:00.198Z,5.32
2022-08-29T05:11:30.477Z,6.85
2022-08-29T05:13:59.737Z,7.13
2022-08-29T05:16:29.977Z,6.75
2022-08-29T05:19:00.122Z,6.63
2022-08-29T05:21:34.933Z,6.63
2022-08-29T05:24:07.714Z,7.07
2022-08-29T05:26:39.395Z,6.53
2022-08-29T05:29:09.320Z,6.20
2022-08-29T05:31:38.059Z,6.00
2022-08-29T05:34:29.928Z,6.85
2022-08-29T05:36:56.449Z,6.82
2022-08-29T05:39:25.965Z,7.07
2022-08-29T05:41:56.422Z,6.82
2022-08-29T05:44:25.441Z,6.00
2022-08-29T05:46:54.051Z,6.50
2022-08-29T05:49:22.666Z,6.85
2022-08-29T05:51:54.415Z,6.43
2022-08-29T05:54:23.366Z,6.68
2022-08-29T05:56:53.443Z,6.15
2022-08-29T05:59:21.683Z,6.00
2022-08-29T06:01:49.877Z,5.65
2022-08-29T06:04:19.345Z,6.22
2022-08-29T06:06:47.966Z,5.70
2022-08-29T06:09:16.106Z,5.85
2022-08-29T06:11:48.848Z,5.72
2022-08-29T06:14:18.652Z,5.50
2022-08-29T06:16:47.021Z,6.10
2022-08-29T06:19:15.212Z,5.85
2022-08-29T06:21:43.566Z,5.50
2022-08-29T06:24:13.137Z,5.80
2022-08-29T06:26:41.389Z,5.50
2022-08-29T06:29:10.974Z,5.93
2022-08-29T06:31:40.743Z,5.70
2022-08-29T06:34:10.158Z,5.60
2022-08-29T06:36:39.398Z,5.82
2022-08-29T06:39:10.961Z,5.65
2022-08-29T06:41:40.709Z,5.82
2022-08-29T06:44:10.107Z,5.53
2022-08-29T06:46:41.442Z,5.68
2022-08-29T06:49:12.982Z,5.85
2022-08-29T06:51:43.404Z,5.35
2022-08-29T06:54:13.041Z,4.75
2022-08-29T06:56:42.625Z,5.32
2022-08-29T06:59:11.479Z,5.22
2022-08-29T07:01:42.474Z,5.25
2022-08-29T07:04:14.360Z,4.85
2022-08-29T07:06:43.700Z,5.78
2022-08-29T07:09:12.738Z,5.57
2022-08-29T07:11:42.896Z,5.47
2022-08-29T07:14:12.181Z,4.63
2022-08-29T07:16:42.791Z,5.28
2022-08-29T07:19:12.183Z,5.18
2022-08-29T07:21:40.767Z,5.32
2022-08-29T07:24:09.770Z,5.03
2022-08-29T07:26:42.229Z,5.05
2022-08-29T07:29:14.333Z,5.05
2022-08-29T07:31:44.430Z,5.63
2022-08-29T07:34:12.955Z,4.63
2022-08-29T07:36:41.692Z,5.22
2022-08-29T07:39:13.309Z,5.38
2022-08-29T07:41:42.734Z,4.55
2022-08-29T07:44:11.479Z,5.05
2022-08-29T07:46:39.968Z,5.45
2022-08-29T07:49:10.201Z,4.82
2022-08-29T07:51:38.748Z,5.23
2022-08-29T07:54:16.909Z,5.43
2022-08-29T07:56:46.531Z,4.97
2022-08-29T07:59:15.700Z,4.28
2022-08-29T08:01:44.557Z,3.78
2022-08-29T08:04:14.519Z,4.47
2022-08-29T08:06:44.496Z,4.28
2022-08-29T08:09:14.139Z,3.72
2022-08-29T08:11:43.660Z,4.30
2022-08-29T08:14:12.294Z,3.85
2022-08-29T08:16:44.249Z,4.10
2022-08-29T08:19:15.627Z,4.35
2022-08-29T08:21:49.847Z,4.18
2022-08-29T08:24:19.797Z,3.88
2022-08-29T08:26:48.854Z,4.05
2022-08-29T08:29:17.524Z,4.38
2022-08-29T08:31:46.270Z,4.30
2022-08-29T08:34:15.837Z,3.72
2022-08-29T08:36:45.847Z,4.50
2022-08-29T08:39:15.288Z,3.85
2022-08-29T08:41:53.721Z,4.05
2022-08-29T08:44:55.593Z,3.72
2022-08-29T08:47:27.732Z,3.92
2022-08-29T08:50:01.814Z,4.40
2022-08-29T08:52:40.159Z,3.95
2022-08-29T08:55:19.743Z,4.07
2022-08-29T08:57:56.695Z,4.00
2022-08-29T09:00:24.840Z,3.78
2022-08-29T09:03:06.005Z,4.03
2022-08-29T09:05:49.375Z,4.03
2022-08-29T09:08:25.991Z,3.90
2022-08-29T09:11:01.302Z,4.03
2022-08-29T09:13:42.290Z,4.03
2022-08-29T09:16:16.101Z,3.80
2022-08-29T09:18:52.810Z,3.45
2022-08-29T09:21:41.831Z,3.80
2022-08-29T09:24:15.405Z,3.63
2022-08-29T09:26:44.106Z,3.35
2022-08-29T09:29:14.323Z,3.70
2022-08-29T09:31:42.927Z,4.18
2022-08-29T09:34:15.908Z,3.80
2022-08-29T09:36:48.965Z,3.08
2022-08-29T09:39:21.991Z,3.22
2022-08-29T09:41:53.563Z,3.47
2022-08-29T09:44:26.108Z,3.53
2022-08-29T09:47:13.054Z,3.45
2022-08-29T09:49:43.384Z,3.50
2022-08-29T09:52:16.581Z,3.70
2022-08-29T09:54:46.485Z,3.42
2022-08-29T09:57:23.428Z,3.80
2022-08-29T10:00:10.672Z,3.72
2022-08-29T10:02:46.934Z,3.55
2022-08-29T10:05:32.381Z,3.50
2022-08-29T10:08:03.146Z,3.78
2022-08-29T10:10:35.072Z,3.28
2022-08-29T10:13:09.286Z,3.42
2022-08-29T10:15:50.924Z,3.63
2022-08-29T10:18:28.939Z,3.40
2022-08-29T10:21:18.204Z,3.67
2022-08-29T10:24:03.587Z,3.20
2022-08-29T10:26:41.170Z,3.75
2022-08-29T10:29:20.261Z,3.35
2022-08-29T10:31:58.140Z,3.92
2022-08-29T10:34:44.826Z,3.47
2022-08-29T10:37:21.612Z,3.22
2022-08-29T10:39:58.491Z,3.28
2022-08-29T10:42:28.511Z,3.67
2022-08-29T10:45:10.907Z,3.55
2022-08-29T10:47:45.562Z,3.63
2022-08-29T10:50:43.622Z,3.47
2022-08-29T10:53:18.411Z,3.88
2022-08-29T10:55:56.144Z,3.40
2022-08-29T10:58:42.223Z,3.10
2022-08-29T11:01:17.529Z,3.30
2022-08-29T11:03:53.346Z,3.40
2022-08-29T11:06:26.279Z,3.20
2022-08-29T11:08:58.867Z,2.90
2022-08-29T11:11:31.138Z,3.40
2022-08-29T11:14:05.839Z,3.28
2022-08-29T11:16:41.393Z,3.13
2022-08-29T11:19:22.047Z,3.10
2022-08-29T11:21:57.939Z,3.30
2022-08-29T11:24:34.148Z,3.05
2022-08-29T11:27:12.672Z,3.47
2022-08-29T11:29:47.154Z,3.20
2022-08-29T11:32:27.671Z,3.17
2022-08-29T11:35:08.225Z,2.67
2022-08-29T11:38:11.737Z,3.40
2022-08-29T11:44:11.913Z,2.58
2022-08-29T11:46:43.801Z,2.90
2022-08-29T11:49:41.961Z,3.50
2022-08-29T11:52:22.461Z,2.90
2022-08-29T11:55:11.153Z,3.00
2022-08-29T11:57:47.925Z,2.72
2022-08-29T12:00:49.253Z,2.70
2022-08-29T12:03:55.357Z,2.83
2022-08-29T12:06:43.741Z,2.88
2022-08-29T12:09:35.372Z,3.00
2022-08-29T12:12:17.024Z,2.92
2022-08-29T12:14:47.664Z,3.20
2022-08-29T12:18:01.000Z,2.72
2022-08-29T12:20:41.173Z,2.70
2022-08-29T12:23:21.256Z,2.72
2022-08-29T12:26:15.797Z,2.75
2022-08-29T12:28:49.216Z,3.60
2022-08-29T12:31:44.380Z,2.78
2022-08-29T12:34:37.201Z,2.63
2022-08-29T12:37:47.964Z,3.10
2022-08-29T12:40:32.560Z,2.85
2022-08-29T12:43:19.073Z,2.58
2022-08-29T12:45:50.234Z,2.60
2022-08-29T12:48:24.553Z,2.50
2022-08-29T12:50:54.368Z,3.03
2022-08-29T12:53:24.823Z,2.47
2022-08-29T12:55:56.693Z,2.95
2022-08-29T12:58:41.992Z,3.13
2022-08-29T13:01:23.003Z,2.88
2022-08-29T13:04:00.730Z,2.90
2022-08-29T13:06:30.744Z,3.03
2022-08-29T13:09:00.151Z,2.97
2022-08-29T13:11:31.439Z,2.90
2022-08-29T13:14:11.438Z,2.92
2022-08-29T13:16:40.776Z,2.83
2022-08-29T13:19:20.938Z,2.65
2022-08-29T13:21:50.579Z,2.47
2022-08-29T13:24:21.205Z,2.53
2022-08-29T13:27:06.083Z,2.97
2022-08-29T13:29:38.943Z,2.45
2022-08-29T13:32:18.172Z,2.53
2022-08-29T13:35:06.587Z,2.50
2022-08-29T13:37:38.438Z,2.80
2022-08-29T13:40:48.671Z,2.40
2022-08-29T13:43:33.544Z,2.42
2022-08-29T13:46:16.544Z,2.40
2022-08-29T13:48:45.618Z,2.80
2022-08-29T13:51:14.342Z,3.15
2022-08-29T13:53:45.846Z,2.55
2022-08-29T13:56:22.928Z,2.65
2022-08-29T13:58:51.814Z,2.60
2022-08-29T14:01:30.481Z,2.85
2022-08-29T14:04:15.414Z,2.38
2022-08-29T14:06:49.021Z,2.65
2022-08-29T14:09:23.467Z,2.50
2022-08-29T14:11:52.008Z,2.90
2022-08-29T14:14:20.900Z,2.53
2022-08-29T14:16:53.964Z,2.53
2022-08-29T14:19:22.522Z,2.97
2022-08-29T14:21:51.137Z,2.60
2022-08-29T14:24:20.804Z,2.53
2022-08-29T14:26:54.086Z,2.80
2022-08-29T14:29:31.578Z,2.60
2022-08-29T14:32:03.070Z,2.67
2022-08-29T14:34:33.231Z,2.70
2022-08-29T14:37:02.351Z,2.42
2022-08-29T14:39:31.842Z,2.47
2022-08-29T14:42:00.466Z,2.70
2022-08-29T14:44:28.960Z,2.45
2022-08-29T14:46:57.848Z,2.70
2022-08-29T14:49:26.438Z,2.78
2022-08-29T14:51:55.015Z,2.40
2022-08-29T14:54:24.665Z,2.60
2022-08-29T14:56:54.978Z,2.60
2022-08-29T14:59:25.631Z,2.50
2022-08-29T15:01:54.999Z,2.72
2022-08-29T15:04:35.118Z,2.53
2022-08-29T15:07:06.466Z,2.50
2022-08-29T15:09:35.119Z,2.78
2022-08-29T15:12:05.169Z,2.25
2022-08-29T15:14:34.897Z,2.50
2022-08-29T15:17:03.819Z,2.72
2022-08-29T15:22:22.179Z,2.53
2022-08-29T15:24:52.044Z,2.35
2022-08-29T15:27:27.425Z,2.65
2022-08-29T15:29:56.431Z,2.50
2022-08-29T15:32:24.577Z,2.40
2022-08-29T15:34:53.595Z,2.53
2022-08-29T15:37:22.179Z,2.38
2022-08-29T15:39:54.408Z,2.35
2022-08-29T15:42:29.933Z,2.28
2022-08-29T15:44:59.903Z,2.45
2022-08-29T15:47:31.603Z,2.30
2022-08-29T15:50:01.062Z,2.60
2022-08-29T15:52:31.183Z,2.50
2022-08-29T15:55:01.176Z,2.53
2022-08-29T15:57:31.092Z,2.50
2022-08-29T15:59:59.297Z,2.40
2022-08-29T16:02:28.058Z,2.47
2022-08-29T16:04:57.658Z,4.07
2022-08-29T16:07:28.734Z,4.05
2022-08-29T16:09:59.701Z,3.95
2022-08-29T16:12:30.939Z,3.20
2022-08-29T16:15:02.362Z,3.05
2022-08-29T16:17:32.442Z,2.70
2022-08-29T16:20:02.311Z,2.70
2022-08-29T16:22:34.285Z,3.03
2022-08-29T16:25:05.045Z,2.70
2022-08-29T16:27:33.631Z,2.30
2022-08-29T16:30:04.604Z,2.75
2022-08-29T16:32:32.874Z,2.33
2022-08-29T16:35:01.174Z,2.60
2022-08-29T16:37:29.808Z,2.53
2022-08-29T16:39:57.981Z,2.42
2022-08-29T16:42:30.339Z,2.30
2022-08-29T16:44:58.814Z,2.75
2022-08-29T16:47:29.148Z,2.92
2022-08-29T16:49:57.684Z,2.83
2022-08-29T16:52:25.797Z,2.40
2022-08-29T16:54:54.081Z,2.50
2022-08-29T16:57:22.980Z,2.40
2022-08-29T16:59:52.184Z,2.50
2022-08-29T17:02:20.370Z,2.53
2022-08-29T17:04:50.074Z,2.70
2022-08-29T17:07:18.954Z,2.60
2022-08-29T17:09:45.974Z,2.63
2022-08-29T17:12:12.971Z,2.78
2022-08-29T17:14:40.477Z,2.67
2022-08-29T17:17:08.664Z,2.80
2022-08-29T17:19:37.970Z,2.75
2022-08-29T17:22:08.272Z,2.53
2022-08-29T17:24:36.829Z,2.30
2022-08-29T17:27:05.023Z,2.50
2022-08-29T17:29:34.031Z,2.13
2022-08-29T17:32:02.157Z,2.38
2022-08-29T17:34:30.353Z,2.40
2022-08-29T17:36:58.623Z,2.28
2022-08-29T17:39:28.595Z,2.28
2022-08-29T17:41:58.904Z,2.47
2022-08-29T17:44:27.382Z,2.78
2022-08-29T17:46:56.137Z,2.60
2022-08-29T17:49:27.718Z,2.20
2022-08-29T17:51:56.072Z,2.65
2022-08-29T17:54:25.117Z,2.22
2022-08-29T17:56:56.490Z,2.65
2022-08-29T17:59:27.283Z,2.50
2022-08-29T18:01:55.598Z,2.33
2022-08-29T18:04:23.837Z,2.33
2022-08-29T18:06:53.006Z,2.45
2022-08-29T18:09:22.798Z,2.40
2022-08-29T18:11:53.482Z,2.70
2022-08-29T18:14:26.738Z,2.20
2022-08-29T18:16:55.856Z,2.50
2022-08-29T18:19:25.091Z,2.70
2022-08-29T18:21:54.406Z,2.40
2022-08-29T18:24:22.732Z,2.33
2022-08-29T18:26:50.954Z,2.40
2022-08-29T18:29:19.726Z,2.30
2022-08-29T18:31:49.407Z,2.33
2022-08-29T18:34:17.950Z,2.75
2022-08-29T18:36:48.085Z,2.58
2022-08-29T18:39:18.923Z,2.50
2022-08-29T18:41:48.351Z,2.65
2022-08-29T18:44:16.533Z,2.83
2022-08-29T18:46:47.782Z,2.58
2022-08-29T18:49:19.664Z,2.53
2022-08-29T18:51:48.068Z,2.30
2022-08-29T18:54:19.124Z,2.58
2022-08-29T18:56:48.043Z,2.75
2022-08-29T18:59:16.620Z,2.80
2022-08-29T19:01:45.024Z,2.67
2022-08-29T19:04:13.571Z,2.75
2022-08-29T19:06:43.471Z,2.22
2022-08-29T19:09:12.276Z,2.33
2022-08-29T19:11:40.595Z,2.30
2022-08-29T19:14:09.320Z,2.70
2022-08-29T19:16:37.513Z,2.33
2022-08-29T19:19:06.266Z,2.70
2022-08-29T19:21:42.818Z,2.80
2022-08-29T19:24:11.385Z,2.70
2022-08-29T19:26:40.110Z,2.88
2022-08-29T19:29:12.661Z,2.53
2022-08-29T19:31:41.149Z,2.80
2022-08-29T19:34:10.099Z,2.35
2022-08-29T19:36:39.726Z,2.20
2022-08-29T19:39:09.326Z,2.60
2022-08-29T19:41:37.702Z,2.60
2022-08-29T19:44:06.024Z,2.42
2022-08-29T19:46:36.033Z,2.83
2022-08-29T19:49:08.224Z,2.38
2022-08-29T19:51:38.166Z,2.50
2022-08-29T19:57:55.582Z,2.67
2022-08-29T20:00:25.846Z,2.90
2022-08-29T20:02:54.777Z,2.67
2022-08-29T20:05:24.035Z,2.80
2022-08-29T20:07:52.721Z,3.10
2022-08-29T20:10:23.741Z,3.03
2022-08-29T20:12:53.535Z,3.10
2022-08-29T20:15:30.503Z,3.30
2022-08-29T20:18:00.042Z,3.00
2022-08-29T20:20:31.025Z,2.90
2022-08-29T20:22:59.190Z,2.78
2022-08-29T20:25:28.275Z,2.78
2022-08-29T20:27:56.880Z,2.70
2022-08-29T20:30:30.353Z,3.03
2022-08-29T20:32:59.016Z,2.65
2022-08-29T20:35:44.823Z,3.00
2022-08-29T20:38:13.230Z,2.90
2022-08-29T20:40:46.616Z,2.85
2022-08-29T20:43:15.678Z,3.28
2022-08-29T20:45:46.842Z,3.03
2022-08-29T20:48:15.856Z,3.00
2022-08-29T20:50:44.636Z,2.78
2022-08-29T20:53:31.463Z,2.92
2022-08-29T20:56:01.219Z,2.70
2022-08-29T20:58:30.554Z,2.50
2022-08-29T21:01:01.395Z,2.60
2022-08-29T21:03:47.617Z,2.63
2022-08-29T21:06:19.922Z,3.00
2022-08-29T21:08:48.816Z,2.40
2022-08-29T21:11:17.034Z,3.00
2022-08-29T21:13:46.628Z,2.50
2022-08-29T21:16:16.319Z,3.42
2022-08-29T21:18:44.530Z,2.60
2022-08-29T21:21:13.575Z,2.40
2022-08-29T21:23:42.583Z,2.92
2022-08-29T21:26:12.126Z,2.38
2022-08-29T21:28:41.711Z,2.63
2022-08-29T21:31:15.495Z,2.88
2022-08-29T21:33:46.009Z,2.60
2022-08-29T21:36:15.449Z,3.20
2022-08-29T21:38:43.586Z,3.38
2022-08-29T21:41:13.203Z,3.28
2022-08-29T21:43:42.431Z,2.95
2022-08-29T21:46:21.263Z,3.30
2022-08-29T21:48:56.346Z,3.10
2022-08-29T21:51:25.709Z,3.17
2022-08-29T21:53:56.866Z,3.22
2022-08-29T21:56:26.103Z,2.78
2022-08-29T21:58:56.297Z,3.13
2022-08-29T22:01:27.660Z,3.65
2022-08-29T22:03:56.628Z,3.40
2022-08-29T22:06:27.723Z,3.33
2022-08-29T22:08:56.792Z,2.88
2022-08-29T22:11:37.119Z,3.05
2022-08-29T22:14:07.388Z,2.65
2022-08-29T22:16:37.166Z,3.13
2022-08-29T22:19:09.072Z,4.82
2022-08-29T22:21:41.363Z,3.70
2022-08-29T22:24:10.680Z,3.05
2022-08-29T22:26:40.528Z,3.88
2022-08-29T22:29:11.750Z,3.38
2022-08-29T22:31:42.918Z,3.88
2022-08-29T22:34:11.560Z,3.60
2022-08-29T22:36:39.732Z,3.17
2022-08-29T22:39:08.867Z,3.17
2022-08-29T22:41:37.922Z,4.07
2022-08-29T22:44:52.632Z,3.55
2022-08-29T22:46:56.236Z,3.40
2022-08-29T22:49:27.687Z,3.42
2022-08-29T22:52:02.533Z,3.20
2022-08-29T22:54:36.655Z,2.90
2022-08-29T22:57:07.858Z,3.15
2022-08-29T22:59:37.171Z,3.33
2022-08-29T23:02:07.750Z,3.10
2022-08-29T23:04:36.955Z,3.55
2022-08-29T23:07:06.865Z,3.25
2022-08-29T23:09:36.015Z,3.30
2022-08-29T23:12:06.178Z,3.50
2022-08-29T23:14:36.221Z,3.40
2022-08-29T23:17:06.758Z,3.58
2022-08-29T23:19:35.541Z,3.90
2022-08-29T23:22:04.455Z,3.80
2022-08-29T23:24:34.951Z,4.25
2022-08-29T23:27:03.106Z,4.00
2022-08-29T23:29:33.396Z,3.72
2022-08-29T23:32:04.557Z,3.17
2022-08-29T23:34:34.815Z,3.40
2022-08-29T23:37:03.674Z,3.53
2022-08-29T23:39:32.261Z,3.55
2022-08-29T23:42:01.092Z,3.45
2022-08-29T23:44:30.063Z,3.60
2022-08-29T23:46:58.854Z,3.45
2022-08-29T23:49:27.588Z,3.25
2022-08-29T23:51:57.626Z,3.53
2022-08-29T23:54:27.489Z,3.90
2022-08-29T23:56:56.098Z,3.35
2022-08-29T23:59:41.948Z,3.78
